createdAt,value
2022-12-05T00:01:51.047Z,33.03
2022-12-05T00:04:18.793Z,34.70
2022-12-05T00:06:46.707Z,30.13
2022-12-05T00:09:15.510Z,31.60
2022-12-05T00:11:45.526Z,32.67
2022-12-05T00:14:14.188Z,31.33
2022-12-05T00:16:43.472Z,31.35
2022-12-05T00:19:15.297Z,31.48
2022-12-05T00:21:43.489Z,31.05
2022-12-05T00:24:15.113Z,30.70
2022-12-05T00:26:43.602Z,31.80
2022-12-05T00:29:12.962Z,32.80
2022-12-05T00:31:40.907Z,31.83
2022-12-05T00:34:08.750Z,33.80
2022-12-05T00:36:38.595Z,30.63
2022-12-05T00:39:08.713Z,37.58
2022-12-05T00:41:36.833Z,38.53
2022-12-05T00:44:05.585Z,30.67
2022-12-05T00:46:34.626Z,29.27
2022-12-05T00:49:03.465Z,27.75
2022-12-05T00:51:32.888Z,36.53
2022-12-05T00:54:03.934Z,33.22
2022-12-05T00:56:33.056Z,34.15
2022-12-05T00:59:02.198Z,33.83
2022-12-05T01:01:32.644Z,33.50
2022-12-05T01:04:02.710Z,33.30
2022-12-05T01:06:30.808Z,33.22
2022-12-05T01:08:58.970Z,31.33
2022-12-05T01:11:29.058Z,34.22
2022-12-05T01:13:57.758Z,36.25
2022-12-05T01:16:27.720Z,35.00
2022-12-05T01:18:56.363Z,34.08
2022-12-05T01:21:24.862Z,35.38
2022-12-05T01:23:52.719Z,32.92
2022-12-05T01:26:22.509Z,30.92
2022-12-05T01:28:52.802Z,32.03
2022-12-05T01:31:25.315Z,37.72
2022-12-05T01:33:55.363Z,33.80
2022-12-05T01:36:24.082Z,37.30
2022-12-05T01:38:52.455Z,39.88
2022-12-05T01:41:23.076Z,36.55
2022-12-05T01:43:58.153Z,36.05
2022-12-05T01:46:27.997Z,35.90
2022-12-05T01:49:01.909Z,36.65
2022-12-05T01:51:29.687Z,33.67
2022-12-05T01:53:57.859Z,35.25
2022-12-05T01:56:25.534Z,35.33
2022-12-05T01:58:56.831Z,34.90
2022-12-05T02:01:24.704Z,31.20
2022-12-05T02:03:55.778Z,36.30
2022-12-05T02:06:24.734Z,36.65
2022-12-05T02:08:53.454Z,34.72
2022-12-05T02:11:22.424Z,35.25
2022-12-05T02:14:15.764Z,31.42
2022-12-05T02:16:58.197Z,33.25
2022-12-05T02:19:52.017Z,37.17
2022-12-05T02:22:37.504Z,33.35
2022-12-05T02:25:22.532Z,38.90
2022-12-05T02:28:13.925Z,35.65
2022-12-05T02:30:49.647Z,32.90
2022-12-05T02:33:23.725Z,34.90
2022-12-05T02:36:02.250Z,33.55
2022-12-05T02:38:37.629Z,30.80
2022-12-05T02:41:15.260Z,31.40
2022-12-05T02:43:50.129Z,36.10
2022-12-05T02:46:23.429Z,32.05
2022-12-05T02:48:55.505Z,32.70
2022-12-05T02:51:27.118Z,35.30
2022-12-05T02:53:58.066Z,32.42
2022-12-05T02:56:27.705Z,35.38
2022-12-05T02:58:57.101Z,33.33
2022-12-05T03:01:30.369Z,32.78
2022-12-05T03:04:00.149Z,33.13
2022-12-05T03:06:30.994Z,33.20
2022-12-05T03:09:03.701Z,34.08
2022-12-05T03:11:37.022Z,34.03
2022-12-05T03:14:08.401Z,34.65
2022-12-05T03:16:42.996Z,33.83
2022-12-05T03:19:13.868Z,31.90
2022-12-05T03:21:49.243Z,32.67
2022-12-05T03:24:17.578Z,31.65
2022-12-05T03:26:53.580Z,37.35
2022-12-05T03:29:26.769Z,29.90
2022-12-05T03:32:06.899Z,35.03
2022-12-05T03:34:44.094Z,34.53
2022-12-05T03:37:17.428Z,37.05
2022-12-05T03:39:49.425Z,36.47
2022-12-05T03:42:21.506Z,36.10
2022-12-05T03:44:53.832Z,33.65
2022-12-05T03:47:29.375Z,38.38
2022-12-05T03:50:02.247Z,33.58
2022-12-05T03:52:51.009Z,35.13
2022-12-05T03:55:27.912Z,36.60
2022-12-05T03:58:00.806Z,39.22
2022-12-05T04:00:31.652Z,36.05
2022-12-05T04:03:05.530Z,34.70
2022-12-05T04:05:40.398Z,35.17
2022-12-05T04:08:13.188Z,35.88
2022-12-05T04:10:49.463Z,39.03
2022-12-05T04:13:20.853Z,36.17
2022-12-05T04:16:12.847Z,34.13
2022-12-05T04:18:47.163Z,38.10
2022-12-05T04:21:35.133Z,40.75
2022-12-05T04:24:20.640Z,35.47
2022-12-05T04:26:54.433Z,38.15
2022-12-05T04:29:28.197Z,37.25
2022-12-05T04:32:00.495Z,35.20
2022-12-05T04:34:32.287Z,37.15
2022-12-05T04:37:05.080Z,34.97
2022-12-05T04:39:39.050Z,40.17
2022-12-05T04:42:10.326Z,34.92
2022-12-05T04:44:43.640Z,36.08
2022-12-05T04:47:15.289Z,34.58
2022-12-05T04:49:54.331Z,36.65
2022-12-05T04:52:23.288Z,40.50
2022-12-05T04:54:56.577Z,33.45
2022-12-05T04:57:28.531Z,33.53
2022-12-05T04:59:56.872Z,33.13
2022-12-05T05:02:32.698Z,33.58
2022-12-05T05:05:05.567Z,37.90
2022-12-05T05:07:44.895Z,34.65
2022-12-05T05:10:16.259Z,32.85
2022-12-05T05:12:43.975Z,30.23
2022-12-05T05:15:11.980Z,33.53
2022-12-05T05:17:39.638Z,30.15
2022-12-05T05:20:25.262Z,31.92
2022-12-05T05:22:54.172Z,31.25
2022-12-05T05:25:22.580Z,28.38
2022-12-05T05:27:52.069Z,31.15
2022-12-05T05:30:20.192Z,29.63
2022-12-05T05:32:48.296Z,32.75
2022-12-05T05:35:17.648Z,29.67
2022-12-05T05:37:45.417Z,33.17
2022-12-05T05:40:14.586Z,32.15
2022-12-05T05:42:46.559Z,30.15
2022-12-05T05:45:15.685Z,32.17
2022-12-05T05:47:43.561Z,31.08
2022-12-05T05:50:16.327Z,28.05
2022-12-05T05:52:47.138Z,31.25
2022-12-05T05:55:14.800Z,34.70
2022-12-05T05:57:42.457Z,33.25
2022-12-05T06:00:11.759Z,31.38
2022-12-05T06:02:39.540Z,31.60
2022-12-05T06:05:08.491Z,31.52
2022-12-05T06:07:36.172Z,28.25
2022-12-05T06:10:06.458Z,33.65
2022-12-05T06:12:34.197Z,30.85
2022-12-05T06:15:01.841Z,34.00
2022-12-05T06:17:29.526Z,31.40
2022-12-05T06:19:57.415Z,28.80
2022-12-05T06:22:25.251Z,27.48
2022-12-05T06:24:52.937Z,29.50
2022-12-05T06:27:22.031Z,28.67
2022-12-05T06:29:49.695Z,29.33
2022-12-05T06:32:17.719Z,28.80
2022-12-05T06:34:45.473Z,29.33
2022-12-05T06:37:13.253Z,27.75
2022-12-05T06:39:41.291Z,27.00
2022-12-05T06:42:09.012Z,27.70
2022-12-05T06:44:38.137Z,28.52
2022-12-05T06:47:05.925Z,33.03
2022-12-05T06:49:37.793Z,28.70
2022-12-05T06:52:06.038Z,26.60
2022-12-05T06:54:33.796Z,28.90
2022-12-05T06:57:01.437Z,25.70
2022-12-05T06:59:29.076Z,26.90
2022-12-05T07:01:57.200Z,27.25
2022-12-05T07:04:25.213Z,30.52
2022-12-05T07:06:54.390Z,26.63
2022-12-05T07:09:43.832Z,27.10
2022-12-05T07:12:11.737Z,25.67
2022-12-05T07:14:47.620Z,28.10
2022-12-05T07:17:17.891Z,28.58
2022-12-05T07:19:45.753Z,29.95
2022-12-05T07:22:15.956Z,28.52
2022-12-05T07:24:44.446Z,27.45
2022-12-05T07:27:12.211Z,27.42
2022-12-05T07:29:39.968Z,28.55
2022-12-05T07:32:08.899Z,28.55
2022-12-05T07:34:38.742Z,29.70
2022-12-05T07:37:06.765Z,26.00
2022-12-05T07:39:34.496Z,30.08
2022-12-05T07:42:02.133Z,28.67
2022-12-05T07:44:30.035Z,24.10
2022-12-05T07:46:58.412Z,24.67
2022-12-05T07:49:26.103Z,25.70
2022-12-05T07:51:55.171Z,27.85
2022-12-05T07:54:23.078Z,26.60
2022-12-05T07:56:50.790Z,28.23
2022-12-05T07:59:18.642Z,24.70
2022-12-05T08:01:46.397Z,24.80
2022-12-05T08:04:15.848Z,24.80
2022-12-05T08:06:44.178Z,29.75
2022-12-05T08:09:13.212Z,29.42
2022-12-05T08:11:41.228Z,29.45
2022-12-05T08:14:09.000Z,30.92
2022-12-05T08:16:36.768Z,27.35
2022-12-05T08:19:06.213Z,26.45
2022-12-05T08:21:34.738Z,25.55
2022-12-05T08:24:05.690Z,26.90
2022-12-05T08:26:36.583Z,29.02
2022-12-05T08:29:07.304Z,25.50
2022-12-05T08:31:37.971Z,28.10
2022-12-05T08:34:05.739Z,28.67
2022-12-05T08:36:33.689Z,25.63
2022-12-05T08:39:03.779Z,25.13
2022-12-05T08:41:31.986Z,22.55
2022-12-05T08:44:04.143Z,22.20
2022-12-05T08:46:32.071Z,22.50
2022-12-05T08:48:59.907Z,22.50
2022-12-05T08:51:27.585Z,21.40
2022-12-05T08:53:57.445Z,21.08
2022-12-05T08:56:27.352Z,21.45
2022-12-05T08:59:04.474Z,27.58
2022-12-05T09:01:38.545Z,21.45
2022-12-05T09:04:07.177Z,22.40
2022-12-05T09:06:35.746Z,23.63
2022-12-05T09:09:06.238Z,20.40
2022-12-05T09:11:36.189Z,33.13
2022-12-05T09:14:06.373Z,43.53
2022-12-05T09:16:39.126Z,39.05
2022-12-05T09:19:11.710Z,49.30
2022-12-05T09:21:39.348Z,37.17
2022-12-05T09:24:07.439Z,29.85
2022-12-05T09:26:35.196Z,34.65
2022-12-05T09:29:03.549Z,22.88
2022-12-05T09:31:31.374Z,23.60
2022-12-05T09:34:01.552Z,28.42
2022-12-05T09:36:30.728Z,24.05
2022-12-05T09:39:04.156Z,23.45
2022-12-05T09:42:09.086Z,23.58
2022-12-05T09:44:44.244Z,20.17
2022-12-05T09:47:21.985Z,24.50
2022-12-05T09:49:57.182Z,19.60
2022-12-05T09:52:28.525Z,18.88
2022-12-05T09:54:57.366Z,18.42
2022-12-05T09:57:34.087Z,20.42
2022-12-05T10:00:03.999Z,15.63
2022-12-05T10:02:43.522Z,16.85
2022-12-05T10:05:19.812Z,17.92
2022-12-05T10:07:59.108Z,20.40
2022-12-05T10:10:33.886Z,18.67
2022-12-05T10:13:18.007Z,15.15
2022-12-05T10:15:53.010Z,15.18
2022-12-05T10:18:36.353Z,18.83
2022-12-05T10:21:13.258Z,17.25
2022-12-05T10:23:59.824Z,17.52
2022-12-05T10:26:31.407Z,17.88
2022-12-05T10:29:08.298Z,17.40
2022-12-05T10:31:38.692Z,17.48
2022-12-05T10:34:15.865Z,16.10
2022-12-05T10:36:56.217Z,16.50
2022-12-05T10:39:24.232Z,14.57
2022-12-05T10:41:52.164Z,18.60
2022-12-05T10:44:20.082Z,16.33
2022-12-05T10:46:48.038Z,16.95
2022-12-05T10:49:15.744Z,14.50
2022-12-05T10:51:45.406Z,16.50
2022-12-05T10:54:21.256Z,15.95
2022-12-05T10:56:50.764Z,15.27
2022-12-05T10:59:20.474Z,17.55
2022-12-05T11:01:52.615Z,15.73
2022-12-05T11:04:27.705Z,17.88
2022-12-05T11:07:00.677Z,15.88
2022-12-05T11:09:30.953Z,15.82
2022-12-05T11:12:04.051Z,14.98
2022-12-05T11:14:33.518Z,17.58
2022-12-05T11:17:02.779Z,16.30
2022-12-05T11:19:33.113Z,14.57
2022-12-05T11:22:03.466Z,14.82
2022-12-05T11:24:32.527Z,13.95
2022-12-05T11:27:02.086Z,15.02
2022-12-05T11:29:36.339Z,14.85
2022-12-05T11:32:06.203Z,13.27
2022-12-05T11:34:38.823Z,13.70
2022-12-05T11:37:13.863Z,18.00
2022-12-05T11:39:42.011Z,12.38
2022-12-05T11:42:32.972Z,12.40
2022-12-05T11:45:18.285Z,14.10
2022-12-05T11:48:06.544Z,10.90
2022-12-05T11:50:41.938Z,11.50
2022-12-05T11:53:27.661Z,11.73
2022-12-05T11:56:03.537Z,12.00
2022-12-05T11:58:48.588Z,11.13
2022-12-05T12:01:29.410Z,11.27
2022-12-05T12:04:29.674Z,10.75
2022-12-05T12:07:15.748Z,11.35
2022-12-05T12:09:55.243Z,8.95
2022-12-05T12:12:32.665Z,10.40
2022-12-05T12:15:10.311Z,9.65
2022-12-05T12:17:48.029Z,10.93
2022-12-05T12:20:35.106Z,9.25
2022-12-05T12:23:22.537Z,10.13
2022-12-05T12:26:04.507Z,10.38
2022-12-05T12:28:40.417Z,9.95
2022-12-05T12:31:25.314Z,9.95
2022-12-05T12:34:01.796Z,8.38
2022-12-05T12:36:37.356Z,8.93
2022-12-05T12:39:20.220Z,9.40
2022-12-05T12:42:05.448Z,9.00
2022-12-05T12:44:50.312Z,9.50
2022-12-05T12:47:25.813Z,8.55
2022-12-05T12:50:05.794Z,10.85
2022-12-05T12:52:47.959Z,8.48
2022-12-05T12:55:22.862Z,10.30
2022-12-05T12:58:04.478Z,9.35
2022-12-05T13:00:44.018Z,8.43
2022-12-05T13:03:18.175Z,8.48
2022-12-05T13:05:51.196Z,8.60
2022-12-05T13:08:25.788Z,8.98
2022-12-05T13:10:54.581Z,7.93
2022-12-05T13:13:28.716Z,9.05
2022-12-05T13:16:00.766Z,8.40
2022-12-05T13:18:28.928Z,7.72
2022-12-05T13:20:59.791Z,8.32
2022-12-05T13:23:30.499Z,8.55
2022-12-05T13:26:00.378Z,8.20
2022-12-05T13:28:33.914Z,9.23
2022-12-05T13:31:04.764Z,8.40
2022-12-05T13:33:35.410Z,9.68
2022-12-05T13:36:29.794Z,7.70
2022-12-05T13:39:17.787Z,7.07
2022-12-05T13:42:05.215Z,7.92
2022-12-05T13:44:42.915Z,7.47
2022-12-05T13:47:25.835Z,6.65
2022-12-05T13:49:57.905Z,8.70
2022-12-05T13:52:30.027Z,7.35
2022-12-05T13:55:01.370Z,8.25
2022-12-05T13:57:48.433Z,7.72
2022-12-05T14:00:33.320Z,11.60
2022-12-05T14:03:07.317Z,7.38
2022-12-05T14:05:46.707Z,7.32
2022-12-05T14:08:46.675Z,8.70
2022-12-05T14:11:14.418Z,8.15
2022-12-05T14:13:45.145Z,13.70
2022-12-05T14:16:45.652Z,17.27
2022-12-05T14:19:39.186Z,14.65
2022-12-05T14:22:22.081Z,12.43
2022-12-05T14:24:58.104Z,15.30
2022-12-05T14:27:41.273Z,10.57
2022-12-05T14:30:22.651Z,11.35
2022-12-05T14:32:53.750Z,9.27
2022-12-05T14:35:27.191Z,9.27
2022-12-05T14:37:58.042Z,11.35
2022-12-05T14:40:31.504Z,9.38
2022-12-05T14:43:02.012Z,14.60
2022-12-05T14:45:34.323Z,9.02
2022-12-05T14:48:06.515Z,7.93
2022-12-05T14:50:44.102Z,9.20
2022-12-05T14:53:34.129Z,10.20
2022-12-05T14:56:16.340Z,7.97
2022-12-05T14:58:48.741Z,7.90
2022-12-05T15:01:19.952Z,8.82
2022-12-05T15:04:08.067Z,7.78
2022-12-05T15:06:38.746Z,7.80
2022-12-05T15:09:35.965Z,12.10
2022-12-05T15:12:02.405Z,7.55
2022-12-05T15:17:07.395Z,8.15
2022-12-05T15:19:46.406Z,9.13
2022-12-05T15:22:17.368Z,8.00
2022-12-05T15:24:45.050Z,8.15
2022-12-05T15:27:13.605Z,9.40
2022-12-05T15:29:42.169Z,7.88
2022-12-05T15:32:20.451Z,9.57
2022-12-05T15:34:57.040Z,7.97
2022-12-05T15:37:27.539Z,7.28
2022-12-05T15:39:57.336Z,7.47
2022-12-05T15:42:29.965Z,13.05
2022-12-05T15:45:18.401Z,6.53
2022-12-05T15:47:47.758Z,8.05
2022-12-05T15:50:21.436Z,9.82
2022-12-05T15:52:53.827Z,8.27
2022-12-05T15:55:27.076Z,8.80
2022-12-05T15:58:01.532Z,8.10
2022-12-05T16:00:30.335Z,10.30
2022-12-05T16:03:03.842Z,7.90
2022-12-05T16:05:39.326Z,7.20
2022-12-05T16:08:08.939Z,9.23
2022-12-05T16:10:37.717Z,10.35
2022-12-05T16:13:08.016Z,9.40
2022-12-05T16:15:35.837Z,9.68
2022-12-05T16:18:06.100Z,13.13
2022-12-05T16:20:36.693Z,10.65
2022-12-05T16:23:07.147Z,10.23
2022-12-05T16:25:37.608Z,8.20
2022-12-05T16:28:18.148Z,10.75
2022-12-05T16:30:57.885Z,8.40
2022-12-05T16:33:25.848Z,8.40
2022-12-05T16:35:54.993Z,9.13
2022-12-05T16:38:25.963Z,8.80
2022-12-05T16:40:57.160Z,8.85
2022-12-05T16:43:29.065Z,11.48
2022-12-05T16:45:58.637Z,8.75
2022-12-05T16:48:27.934Z,11.73
2022-12-05T16:51:19.160Z,12.70
2022-12-05T16:53:49.534Z,9.75
2022-12-05T16:56:19.571Z,9.40
2022-12-05T16:58:47.696Z,11.20
2022-12-05T17:01:18.864Z,10.98
2022-12-05T17:03:46.945Z,10.45
2022-12-05T17:06:16.412Z,11.20
2022-12-05T17:08:44.281Z,13.60
2022-12-05T17:11:16.839Z,10.10
2022-12-05T17:13:45.236Z,10.38
2022-12-05T17:16:13.098Z,12.82
2022-12-05T17:18:40.832Z,9.10
2022-12-05T17:21:15.126Z,12.65
2022-12-05T17:23:47.698Z,11.30
2022-12-05T17:26:18.084Z,9.82
2022-12-05T17:28:45.801Z,11.35
2022-12-05T17:31:15.195Z,10.77
2022-12-05T17:33:43.193Z,13.55
2022-12-05T17:36:11.775Z,11.95
2022-12-05T17:38:39.660Z,12.00
2022-12-05T17:41:08.932Z,11.35
2022-12-05T17:43:36.644Z,11.75
2022-12-05T17:46:04.520Z,12.35
2022-12-05T17:48:32.199Z,13.13
2022-12-05T17:51:00.051Z,13.27
2022-12-05T17:53:27.704Z,11.85
2022-12-05T17:55:55.427Z,16.17
2022-12-05T17:58:24.859Z,10.88
2022-12-05T18:00:52.624Z,12.13
2022-12-05T18:03:20.470Z,13.30
2022-12-05T18:05:48.830Z,11.57
2022-12-05T18:08:17.608Z,13.70
2022-12-05T18:10:47.055Z,15.55
2022-12-05T18:13:15.283Z,15.55
2022-12-05T18:15:44.707Z,10.48
2022-12-05T18:18:16.374Z,10.70
2022-12-05T18:20:44.148Z,13.82
2022-12-05T18:23:12.092Z,14.23
2022-12-05T18:25:40.120Z,15.38
2022-12-05T18:28:07.785Z,12.88
2022-12-05T18:30:35.482Z,11.70
2022-12-05T18:33:04.526Z,10.63
2022-12-05T18:35:41.904Z,11.30
2022-12-05T18:38:10.796Z,9.93
2022-12-05T18:40:38.985Z,10.02
2022-12-05T18:43:06.736Z,11.15
2022-12-05T18:45:34.510Z,16.05
2022-12-05T18:48:23.182Z,11.35
2022-12-05T18:50:51.720Z,10.32
2022-12-05T18:53:19.841Z,10.88
2022-12-05T18:58:35.333Z,11.95
2022-12-05T19:01:08.343Z,12.45
2022-12-05T19:03:36.717Z,12.25
2022-12-05T19:06:14.357Z,10.85
2022-12-05T19:08:45.461Z,12.77
2022-12-05T19:11:13.568Z,12.13
2022-12-05T19:13:41.520Z,11.50
2022-12-05T19:16:14.034Z,12.73
2022-12-05T19:18:42.566Z,10.70
2022-12-05T19:21:10.361Z,7.45
2022-12-05T19:23:40.065Z,10.23
2022-12-05T19:26:09.228Z,8.50
2022-12-05T19:28:38.673Z,9.30
2022-12-05T19:31:08.744Z,7.50
2022-12-05T19:33:38.659Z,10.10
2022-12-05T19:36:08.061Z,9.35
2022-12-05T19:38:36.164Z,8.82
2022-12-05T19:41:06.616Z,6.95
2022-12-05T19:43:35.792Z,7.13
2022-12-05T19:46:04.794Z,8.00
2022-12-05T19:48:32.727Z,7.68
2022-12-05T19:51:01.822Z,7.00
2022-12-05T19:53:30.934Z,6.25
2022-12-05T19:56:02.142Z,6.88
2022-12-05T19:58:32.280Z,6.47
2022-12-05T20:01:07.801Z,5.53
2022-12-05T20:03:35.829Z,6.20
2022-12-05T20:06:04.570Z,7.93
2022-12-05T20:08:32.333Z,6.13
2022-12-05T20:11:04.820Z,5.55
2022-12-05T20:13:46.544Z,5.38
2022-12-05T20:16:18.556Z,6.25
2022-12-05T20:18:47.059Z,5.88
2022-12-05T20:21:17.489Z,8.23
2022-12-05T20:23:45.160Z,5.72
2022-12-05T20:26:15.019Z,5.15
2022-12-05T20:28:45.154Z,7.22
2022-12-05T20:31:14.616Z,5.05
2022-12-05T20:33:42.567Z,6.00
2022-12-05T20:36:12.458Z,6.68
2022-12-05T20:38:40.561Z,5.15
2022-12-05T20:41:11.079Z,6.70
2022-12-05T20:43:39.232Z,5.80
2022-12-05T20:46:11.090Z,7.93
2022-12-05T20:48:38.948Z,5.13
2022-12-05T20:51:07.939Z,5.15
2022-12-05T20:53:36.616Z,7.40
2022-12-05T20:56:05.538Z,6.65
2022-12-05T20:58:33.673Z,5.40
2022-12-05T21:01:01.919Z,5.63
2022-12-05T21:03:31.306Z,4.97
2022-12-05T21:05:59.384Z,4.63
2022-12-05T21:08:27.537Z,7.32
2022-12-05T21:10:55.242Z,7.07
2022-12-05T21:13:22.926Z,5.70
2022-12-05T21:15:50.714Z,5.88
2022-12-05T21:18:18.447Z,5.35
2022-12-05T21:20:56.584Z,6.88
2022-12-05T21:23:24.373Z,5.88
2022-12-05T21:25:52.186Z,4.80
2022-12-05T21:28:20.172Z,5.85
2022-12-05T21:30:48.061Z,6.38
2022-12-05T21:33:15.805Z,4.53
2022-12-05T21:35:43.604Z,5.43
2022-12-05T21:38:12.659Z,6.25
2022-12-05T21:40:43.731Z,7.25
2022-12-05T21:43:12.532Z,5.65
2022-12-05T21:45:43.809Z,4.88
2022-12-05T21:48:13.489Z,4.90
2022-12-05T21:50:43.213Z,5.18
2022-12-05T21:53:12.322Z,5.63
2022-12-05T21:55:40.090Z,7.07
2022-12-05T21:58:07.794Z,5.05
2022-12-05T22:00:35.555Z,6.10
2022-12-05T22:03:03.424Z,6.45
2022-12-05T22:05:31.432Z,6.72
2022-12-05T22:08:03.460Z,5.88
2022-12-05T22:10:35.830Z,6.03
2022-12-05T22:13:03.900Z,5.80
2022-12-05T22:15:31.689Z,9.98
2022-12-05T22:17:59.431Z,5.57
2022-12-05T22:20:27.128Z,5.85
2022-12-05T22:22:54.782Z,5.40
2022-12-05T22:25:22.449Z,5.30
2022-12-05T22:27:51.474Z,11.70
2022-12-05T22:30:19.628Z,5.70
2022-12-05T22:32:47.343Z,4.90
2022-12-05T22:35:15.157Z,4.90
2022-12-05T22:37:42.828Z,6.00
2022-12-05T22:40:11.109Z,5.28
2022-12-05T22:42:38.944Z,8.02
2022-12-05T22:45:09.291Z,5.40
2022-12-05T22:47:36.970Z,6.80
2022-12-05T22:50:05.105Z,5.07
2022-12-05T22:52:32.814Z,8.68
2022-12-05T22:55:00.738Z,5.57
2022-12-05T22:57:28.632Z,5.63
2022-12-05T22:59:56.431Z,7.88
2022-12-05T23:02:25.964Z,5.00
2022-12-05T23:04:53.994Z,6.20
2022-12-05T23:07:21.905Z,5.72
2022-12-05T23:09:49.861Z,5.82
2022-12-05T23:12:17.948Z,7.43
2022-12-05T23:14:46.045Z,6.15
2022-12-05T23:17:14.021Z,6.28
2022-12-05T23:19:43.359Z,4.75
2022-12-05T23:22:11.253Z,5.07
2022-12-05T23:24:39.175Z,5.82
2022-12-05T23:27:07.116Z,6.78
2022-12-05T23:29:35.357Z,5.43
2022-12-05T23:32:03.746Z,6.40
2022-12-05T23:34:31.680Z,4.97
2022-12-05T23:37:01.010Z,7.47
2022-12-05T23:39:28.975Z,4.97
2022-12-05T23:41:56.938Z,5.80
2022-12-05T23:44:24.970Z,5.72
2022-12-05T23:46:52.922Z,5.03
2022-12-05T23:49:20.899Z,5.07
2022-12-05T23:51:50.597Z,4.38
2022-12-05T23:54:20.079Z,4.28
2022-12-05T23:56:48.050Z,5.03
2022-12-05T23:59:16.120Z,5.95
